sensor_id;sensor_type;location;lat;lon;timestamp;pressure;altitude;pressure_sealevel;temperature
79756;BMP280;69239;50.678;12.280;2023-12-14T00:00:24;96340.97;;;7.79
79756;BMP280;69239;50.678;12.280;2023-12-14T00:02:49;96353.44;;;7.82
79756;BMP280;69239;50.678;12.280;2023-12-14T00:05:15;96355.41;;;7.86
79756;BMP280;69239;50.678;12.280;2023-12-14T00:07:40;96354.38;;;7.78
79756;BMP280;69239;50.678;12.280;2023-12-14T00:10:06;96359.75;;;7.81
79756;BMP280;69239;50.678;12.280;2023-12-14T00:12:32;96371.28;;;7.80
79756;BMP280;69239;50.678;12.280;2023-12-14T00:14:57;96377.63;;;7.79
79756;BMP280;69239;50.678;12.280;2023-12-14T00:17:22;96376.53;;;7.80
79756;BMP280;69239;50.678;12.280;2023-12-14T00:19:48;96377.97;;;7.78
79756;BMP280;69239;50.678;12.280;2023-12-14T00:22:13;96382.88;;;7.79
79756;BMP280;69239;50.678;12.280;2023-12-14T00:24:39;96387.66;;;7.77
79756;BMP280;69239;50.678;12.280;2023-12-14T00:27:04;96394.00;;;7.76
79756;BMP280;69239;50.678;12.280;2023-12-14T00:29:29;96388.75;;;7.76
79756;BMP280;69239;50.678;12.280;2023-12-14T00:31:55;96403.38;;;7.77
79756;BMP280;69239;50.678;12.280;2023-12-14T00:34:20;96401.22;;;7.71
79756;BMP280;69239;50.678;12.280;2023-12-14T00:36:46;96413.41;;;7.75
79756;BMP280;69239;50.678;12.280;2023-12-14T00:39:11;96405.06;;;7.73
79756;BMP280;69239;50.678;12.280;2023-12-14T00:41:37;96419.72;;;7.74
79756;BMP280;69239;50.678;12.280;2023-12-14T00:44:02;96415.09;;;7.71
79756;BMP280;69239;50.678;12.280;2023-12-14T00:46:27;96416.94;;;7.71
79756;BMP280;69239;50.678;12.280;2023-12-14T00:48:53;96421.09;;;7.72
79756;BMP280;69239;50.678;12.280;2023-12-14T00:51:18;96428.19;;;7.71
79756;BMP280;69239;50.678;12.280;2023-12-14T00:53:43;96428.19;;;7.71
79756;BMP280;69239;50.678;12.280;2023-12-14T00:56:09;96432.97;;;7.69
79756;BMP280;69239;50.678;12.280;2023-12-14T00:58:34;96435.16;;;7.67
79756;BMP280;69239;50.678;12.280;2023-12-14T01:01:00;96442.88;;;7.64
79756;BMP280;69239;50.678;12.280;2023-12-14T01:03:25;96440.38;;;7.67
79756;BMP280;69239;50.678;12.280;2023-12-14T01:05:50;96456.91;;;7.68
79756;BMP280;69239;50.678;12.280;2023-12-14T01:08:16;96443.19;;;7.62
79756;BMP280;69239;50.678;12.280;2023-12-14T01:10:42;96455.06;;;7.68
79756;BMP280;69239;50.678;12.280;2023-12-14T01:13:07;96458.09;;;7.70
79756;BMP280;69239;50.678;12.280;2023-12-14T01:15:33;96459.50;;;7.68
79756;BMP280;69239;50.678;12.280;2023-12-14T01:17:58;96466.41;;;7.72
79756;BMP280;69239;50.678;12.280;2023-12-14T01:20:24;96465.53;;;7.68
79756;BMP280;69239;50.678;12.280;2023-12-14T01:22:49;96468.56;;;7.70
79756;BMP280;69239;50.678;12.280;2023-12-14T01:25:15;96466.28;;;7.69
79756;BMP280;69239;50.678;12.280;2023-12-14T01:27:40;96474.72;;;7.74
79756;BMP280;69239;50.678;12.280;2023-12-14T01:30:06;96484.59;;;7.77
79756;BMP280;69239;50.678;12.280;2023-12-14T01:32:31;96479.94;;;7.74
79756;BMP280;69239;50.678;12.280;2023-12-14T01:34:57;96453.38;;;7.55
79756;BMP280;69239;50.678;12.280;2023-12-14T01:37:22;96468.44;;;7.67
79756;BMP280;69239;50.678;12.280;2023-12-14T01:39:48;96455.53;;;7.53
79756;BMP280;69239;50.678;12.280;2023-12-14T01:42:13;96455.69;;;7.48
79756;BMP280;69239;50.678;12.280;2023-12-14T01:44:39;96475.69;;;7.61
79756;BMP280;69239;50.678;12.280;2023-12-14T01:47:04;96472.59;;;7.59
79756;BMP280;69239;50.678;12.280;2023-12-14T01:49:30;96499.22;;;7.78
79756;BMP280;69239;50.678;12.280;2023-12-14T01:51:55;96499.66;;;7.80
79756;BMP280;69239;50.678;12.280;2023-12-14T01:54:20;96492.75;;;7.76
79756;BMP280;69239;50.678;12.280;2023-12-14T01:56:46;96507.50;;;7.80
79756;BMP280;69239;50.678;12.280;2023-12-14T01:59:12;96505.84;;;7.76
79756;BMP280;69239;50.678;12.280;2023-12-14T02:01:45;96507.22;;;7.82
79756;BMP280;69239;50.678;12.280;2023-12-14T02:04:12;96514.63;;;7.80
79756;BMP280;69239;50.678;12.280;2023-12-14T02:06:38;96521.53;;;7.85
79756;BMP280;69239;50.678;12.280;2023-12-14T02:09:04;96526.78;;;7.85
79756;BMP280;69239;50.678;12.280;2023-12-14T02:11:29;96529.09;;;7.86
79756;BMP280;69239;50.678;12.280;2023-12-14T02:13:55;96527.22;;;7.87
79756;BMP280;69239;50.678;12.280;2023-12-14T02:16:20;96527.53;;;7.85
79756;BMP280;69239;50.678;12.280;2023-12-14T02:18:46;96535.56;;;7.89
79756;BMP280;69239;50.678;12.280;2023-12-14T02:21:11;96530.34;;;7.89
79756;BMP280;69239;50.678;12.280;2023-12-14T02:23:44;96541.88;;;7.88
79756;BMP280;69239;50.678;12.280;2023-12-14T02:26:10;96538.19;;;7.89
79756;BMP280;69239;50.678;12.280;2023-12-14T02:28:35;96556.66;;;7.92
79756;BMP280;69239;50.678;12.280;2023-12-14T02:31:00;96544.97;;;7.90
79756;BMP280;69239;50.678;12.280;2023-12-14T02:33:26;96550.22;;;7.90
79756;BMP280;69239;50.678;12.280;2023-12-14T02:35:51;96554.03;;;7.92
79756;BMP280;69239;50.678;12.280;2023-12-14T02:38:17;96551.09;;;7.94
79756;BMP280;69239;50.678;12.280;2023-12-14T02:40:42;96556.03;;;7.95
79756;BMP280;69239;50.678;12.280;2023-12-14T02:43:08;96559.13;;;7.97
79756;BMP280;69239;50.678;12.280;2023-12-14T02:45:33;96551.88;;;7.94
79756;BMP280;69239;50.678;12.280;2023-12-14T02:47:58;96554.03;;;7.92
79756;BMP280;69239;50.678;12.280;2023-12-14T02:50:24;96565.44;;;7.96
79756;BMP280;69239;50.678;12.280;2023-12-14T02:52:49;96579.31;;;7.97
79756;BMP280;69239;50.678;12.280;2023-12-14T02:55:14;96577.47;;;7.97
79756;BMP280;69239;50.678;12.280;2023-12-14T02:57:40;96570.53;;;7.93
79756;BMP280;69239;50.678;12.280;2023-12-14T03:00:06;96581.94;;;7.97
79756;BMP280;69239;50.678;12.280;2023-12-14T03:02:31;96573.59;;;7.95
79756;BMP280;69239;50.678;12.280;2023-12-14T03:04:57;96578.84;;;7.95
79756;BMP280;69239;50.678;12.280;2023-12-14T03:07:22;96581.00;;;7.93
79756;BMP280;69239;50.678;12.280;2023-12-14T03:09:47;96586.25;;;7.93
79756;BMP280;69239;50.678;12.280;2023-12-14T03:12:13;96586.25;;;7.93
79756;BMP280;69239;50.678;12.280;2023-12-14T03:14:38;96595.94;;;7.92
79756;BMP280;69239;50.678;12.280;2023-12-14T03:17:06;96591.06;;;7.91
79756;BMP280;69239;50.678;12.280;2023-12-14T03:19:32;96585.34;;;7.89
79756;BMP280;69239;50.678;12.280;2023-12-14T03:21:57;96591.19;;;7.86
79756;BMP280;69239;50.678;12.280;2023-12-14T03:24:23;96598.91;;;7.82
79756;BMP280;69239;50.678;12.280;2023-12-14T03:26:48;96599.69;;;7.82
79756;BMP280;69239;50.678;12.280;2023-12-14T03:29:13;96604.94;;;7.82
79756;BMP280;69239;50.678;12.280;2023-12-14T03:31:39;96607.53;;;7.82
79756;BMP280;69239;50.678;12.280;2023-12-14T03:34:05;96605.56;;;7.79
79756;BMP280;69239;50.678;12.280;2023-12-14T03:36:30;96608.78;;;7.76
79756;BMP280;69239;50.678;12.280;2023-12-14T03:38:56;96624.97;;;7.78
79756;BMP280;69239;50.678;12.280;2023-12-14T03:41:21;96627.59;;;7.78
79756;BMP280;69239;50.678;12.280;2023-12-14T03:43:46;96618.50;;;7.76
79756;BMP280;69239;50.678;12.280;2023-12-14T03:46:12;96620.81;;;7.77
79756;BMP280;69239;50.678;12.280;2023-12-14T03:48:37;96627.44;;;7.75
79756;BMP280;69239;50.678;12.280;2023-12-14T03:51:04;96632.69;;;7.75
79756;BMP280;69239;50.678;12.280;2023-12-14T03:53:29;96637.13;;;7.74
79756;BMP280;69239;50.678;12.280;2023-12-14T03:55:55;96636.53;;;7.77
79756;BMP280;69239;50.678;12.280;2023-12-14T03:58:20;96633.44;;;7.75
79756;BMP280;69239;50.678;12.280;2023-12-14T04:00:46;96649.16;;;7.75
79756;BMP280;69239;50.678;12.280;2023-12-14T04:03:11;96652.84;;;7.74
79756;BMP280;69239;50.678;12.280;2023-12-14T04:05:37;96655.47;;;7.74
79756;BMP280;69239;50.678;12.280;2023-12-14T04:08:04;96658.06;;;7.74
79756;BMP280;69239;50.678;12.280;2023-12-14T04:10:29;96659.66;;;7.75
79756;BMP280;69239;50.678;12.280;2023-12-14T04:12:55;96663.50;;;7.78
79756;BMP280;69239;50.678;12.280;2023-12-14T04:15:20;96663.31;;;7.74
79756;BMP280;69239;50.678;12.280;2023-12-14T04:17:46;96672.44;;;7.77
79756;BMP280;69239;50.678;12.280;2023-12-14T04:20:13;96671.97;;;7.75
79756;BMP280;69239;50.678;12.280;2023-12-14T04:22:38;96683.69;;;7.77
79756;BMP280;69239;50.678;12.280;2023-12-14T04:25:04;96680.59;;;7.75
79756;BMP280;69239;50.678;12.280;2023-12-14T04:27:29;96684.28;;;7.74
79756;BMP280;69239;50.678;12.280;2023-12-14T04:29:55;96692.63;;;7.76
79756;BMP280;69239;50.678;12.280;2023-12-14T04:32:20;96694.47;;;7.76
79756;BMP280;69239;50.678;12.280;2023-12-14T04:34:46;96699.41;;;7.77
79756;BMP280;69239;50.678;12.280;2023-12-14T04:37:12;96706.94;;;7.79
79756;BMP280;69239;50.678;12.280;2023-12-14T04:39:37;96701.38;;;7.72
79756;BMP280;69239;50.678;12.280;2023-12-14T04:42:03;96712.50;;;7.77
79756;BMP280;69239;50.678;12.280;2023-12-14T04:44:28;96724.53;;;7.78
79756;BMP280;69239;50.678;12.280;2023-12-14T04:46:54;96720.34;;;7.77
79756;BMP280;69239;50.678;12.280;2023-12-14T04:49:19;96723.44;;;7.79
79756;BMP280;69239;50.678;12.280;2023-12-14T04:51:45;96738.38;;;7.79
79756;BMP280;69239;50.678;12.280;2023-12-14T04:54:10;96738.53;;;7.82
79756;BMP280;69239;50.678;12.280;2023-12-14T04:56:35;96737.00;;;7.81
79756;BMP280;69239;50.678;12.280;2023-12-14T04:59:01;96738.53;;;7.82
79756;BMP280;69239;50.678;12.280;2023-12-14T05:01:27;96744.25;;;7.85
79756;BMP280;69239;50.678;12.280;2023-12-14T05:03:53;96745.31;;;7.83
79756;BMP280;69239;50.678;12.280;2023-12-14T05:06:19;96755.81;;;7.83
79756;BMP280;69239;50.678;12.280;2023-12-14T05:08:44;96756.88;;;7.82
79756;BMP280;69239;50.678;12.280;2023-12-14T05:11:11;96753.34;;;7.78
79756;BMP280;69239;50.678;12.280;2023-12-14T05:13:37;96766.88;;;7.80
79756;BMP280;69239;50.678;12.280;2023-12-14T05:16:03;96752.69;;;7.73
79756;BMP280;69239;50.678;12.280;2023-12-14T05:18:29;96767.22;;;7.79
79756;BMP280;69239;50.678;12.280;2023-12-14T05:20:55;96770.59;;;7.79
79756;BMP280;69239;50.678;12.280;2023-12-14T05:23:20;96770.13;;;7.77
79756;BMP280;69239;50.678;12.280;2023-12-14T05:25:45;96783.69;;;7.79
79756;BMP280;69239;50.678;12.280;2023-12-14T05:28:11;96788.16;;;7.79
79756;BMP280;69239;50.678;12.280;2023-12-14T05:30:36;96791.88;;;7.78
79756;BMP280;69239;50.678;12.280;2023-12-14T05:33:02;96805.28;;;7.76
79756;BMP280;69239;50.678;12.280;2023-12-14T05:35:27;96807.69;;;7.73
79756;BMP280;69239;50.678;12.280;2023-12-14T05:37:53;96812.63;;;7.74
79756;BMP280;69239;50.678;12.280;2023-12-14T05:40:18;96816.34;;;7.73
79756;BMP280;69239;50.678;12.280;2023-12-14T05:42:44;96825.28;;;7.72
79756;BMP280;69239;50.678;12.280;2023-12-14T05:45:09;96827.75;;;7.69
79756;BMP280;69239;50.678;12.280;2023-12-14T05:47:35;96821.75;;;7.68
79756;BMP280;69239;50.678;12.280;2023-12-14T05:50:01;96827.88;;;7.72
79756;BMP280;69239;50.678;12.280;2023-12-14T05:52:27;96830.97;;;7.74
79756;BMP280;69239;50.678;12.280;2023-12-14T05:54:52;96839.31;;;7.76
79756;BMP280;69239;50.678;12.280;2023-12-14T05:57:18;96836.72;;;7.76
79756;BMP280;69239;50.678;12.280;2023-12-14T05:59:43;96844.56;;;7.76
79756;BMP280;69239;50.678;12.280;2023-12-14T06:02:09;96855.94;;;7.80
79756;BMP280;69239;50.678;12.280;2023-12-14T06:04:34;96859.06;;;7.82
79756;BMP280;69239;50.678;12.280;2023-12-14T06:07:01;96859.53;;;7.85
79756;BMP280;69239;50.678;12.280;2023-12-14T06:09:26;96860.44;;;7.80
79756;BMP280;69239;50.678;12.280;2023-12-14T06:11:59;96865.84;;;7.83
79756;BMP280;69239;50.678;12.280;2023-12-14T06:14:26;96868.00;;;7.81
79756;BMP280;69239;50.678;12.280;2023-12-14T06:16:51;96875.41;;;7.79
79756;BMP280;69239;50.678;12.280;2023-12-14T06:19:16;96878.63;;;7.76
79756;BMP280;69239;50.678;12.280;2023-12-14T06:21:42;96875.41;;;7.79
79756;BMP280;69239;50.678;12.280;2023-12-14T06:24:07;96889.00;;;7.90
79756;BMP280;69239;50.678;12.280;2023-12-14T06:26:32;96894.69;;;7.92
79756;BMP280;69239;50.678;12.280;2023-12-14T06:28:58;96888.50;;;7.88
79756;BMP280;69239;50.678;12.280;2023-12-14T06:31:23;96894.56;;;7.89
79756;BMP280;69239;50.678;12.280;2023-12-14T06:33:49;96889.72;;;7.82
79756;BMP280;69239;50.678;12.280;2023-12-14T06:36:18;96908.69;;;7.79
79756;BMP280;69239;50.678;12.280;2023-12-14T06:38:47;96901.25;;;7.72
79756;BMP280;69239;50.678;12.280;2023-12-14T06:41:22;96913.56;;;7.72
79756;BMP280;69239;50.678;12.280;2023-12-14T06:43:49;96913.88;;;7.70
79756;BMP280;69239;50.678;12.280;2023-12-14T06:46:14;96915.41;;;7.71
79756;BMP280;69239;50.678;12.280;2023-12-14T06:48:40;96929.59;;;7.70
79756;BMP280;69239;50.678;12.280;2023-12-14T06:51:06;96928.03;;;7.69
79756;BMP280;69239;50.678;12.280;2023-12-14T06:53:31;96925.91;;;7.71
79756;BMP280;69239;50.678;12.280;2023-12-14T06:55:57;96932.03;;;7.67
79756;BMP280;69239;50.678;12.280;2023-12-14T06:58:22;96939.63;;;7.68
79756;BMP280;69239;50.678;12.280;2023-12-14T07:00:47;96949.78;;;7.70
79756;BMP280;69239;50.678;12.280;2023-12-14T07:03:13;96946.53;;;7.64
79756;BMP280;69239;50.678;12.280;2023-12-14T07:05:39;96959.81;;;7.68
79756;BMP280;69239;50.678;12.280;2023-12-14T07:08:04;96957.00;;;7.64
79756;BMP280;69239;50.678;12.280;2023-12-14T07:10:30;96964.56;;;7.66
79756;BMP280;69239;50.678;12.280;2023-12-14T07:12:56;96965.47;;;7.61
79756;BMP280;69239;50.678;12.280;2023-12-14T07:15:21;96967.47;;;7.64
79756;BMP280;69239;50.678;12.280;2023-12-14T07:17:47;96971.34;;;7.67
79756;BMP280;69239;50.678;12.280;2023-12-14T07:20:12;96972.91;;;7.68
79756;BMP280;69239;50.678;12.280;2023-12-14T07:22:38;96987.59;;;7.77
79756;BMP280;69239;50.678;12.280;2023-12-14T07:25:04;96994.38;;;7.78
79756;BMP280;69239;50.678;12.280;2023-12-14T07:27:29;96998.06;;;7.77
79756;BMP280;69239;50.678;12.280;2023-12-14T07:29:55;97010.09;;;7.78
79756;BMP280;69239;50.678;12.280;2023-12-14T07:32:21;97012.25;;;7.76
79756;BMP280;69239;50.678;12.280;2023-12-14T07:34:47;97010.69;;;7.75
79756;BMP280;69239;50.678;12.280;2023-12-14T07:37:12;97014.97;;;7.71
79756;BMP280;69239;50.678;12.280;2023-12-14T07:39:38;97011.13;;;7.69
79756;BMP280;69239;50.678;12.280;2023-12-14T07:42:04;97025.09;;;7.64
79756;BMP280;69239;50.678;12.280;2023-12-14T07:44:30;97024.63;;;7.62
79756;BMP280;69239;50.678;12.280;2023-12-14T07:46:56;97043.44;;;7.64
79756;BMP280;69239;50.678;12.280;2023-12-14T07:49:22;97033.56;;;7.61
79756;BMP280;69239;50.678;12.280;2023-12-14T07:51:49;97053.44;;;7.62
79756;BMP280;69239;50.678;12.280;2023-12-14T07:54:14;97048.78;;;7.59
79756;BMP280;69239;50.678;12.280;2023-12-14T07:56:40;97044.75;;;7.53
79756;BMP280;69239;50.678;12.280;2023-12-14T07:59:06;97054.16;;;7.54
79756;BMP280;69239;50.678;12.280;2023-12-14T08:01:33;97054.75;;;7.51
79756;BMP280;69239;50.678;12.280;2023-12-14T08:03:59;97057.38;;;7.51
79756;BMP280;69239;50.678;12.280;2023-12-14T08:06:25;97053.31;;;7.45
79756;BMP280;69239;50.678;12.280;2023-12-14T08:08:50;97081.72;;;7.51
79756;BMP280;69239;50.678;12.280;2023-12-14T08:11:15;97073.13;;;7.60
79756;BMP280;69239;50.678;12.280;2023-12-14T08:13:41;97086.78;;;7.70
79756;BMP280;69239;50.678;12.280;2023-12-14T08:16:08;97088.56;;;7.83
79756;BMP280;69239;50.678;12.280;2023-12-14T08:18:33;97093.56;;;7.94
79756;BMP280;69239;50.678;12.280;2023-12-14T08:20:59;97091.16;;;8.06
79756;BMP280;69239;50.678;12.280;2023-12-14T08:23:24;97094.25;;;8.08
79756;BMP280;69239;50.678;12.280;2023-12-14T08:25:53;97083.56;;;7.96
79756;BMP280;69239;50.678;12.280;2023-12-14T08:28:22;97090.94;;;7.94
79756;BMP280;69239;50.678;12.280;2023-12-14T08:30:48;97085.94;;;7.83
79756;BMP280;69239;50.678;12.280;2023-12-14T08:33:13;97108.94;;;7.87
79756;BMP280;69239;50.678;12.280;2023-12-14T08:35:39;97099.94;;;7.79
79756;BMP280;69239;50.678;12.280;2023-12-14T08:38:04;97113.88;;;7.88
79756;BMP280;69239;50.678;12.280;2023-12-14T08:40:29;97125.16;;;7.89
79756;BMP280;69239;50.678;12.280;2023-12-14T08:42:55;97123.31;;;7.89
79756;BMP280;69239;50.678;12.280;2023-12-14T08:45:22;97124.78;;;7.81
79756;BMP280;69239;50.678;12.280;2023-12-14T08:47:47;97144.94;;;7.81
79756;BMP280;69239;50.678;12.280;2023-12-14T08:50:12;97126.06;;;7.70
79756;BMP280;69239;50.678;12.280;2023-12-14T08:52:38;97155.28;;;7.77
79756;BMP280;69239;50.678;12.280;2023-12-14T08:55:04;97140.66;;;7.63
79756;BMP280;69239;50.678;12.280;2023-12-14T08:57:29;97159.34;;;7.70
79756;BMP280;69239;50.678;12.280;2023-12-14T08:59:56;97160.72;;;7.67
79756;BMP280;69239;50.678;12.280;2023-12-14T09:02:21;97169.19;;;7.64
79756;BMP280;69239;50.678;12.280;2023-12-14T09:04:47;97175.00;;;7.61
79756;BMP280;69239;50.678;12.280;2023-12-14T09:07:12;97178.97;;;7.59
79756;BMP280;69239;50.678;12.280;2023-12-14T09:09:37;97173.88;;;7.54
79756;BMP280;69239;50.678;12.280;2023-12-14T09:12:03;97182.50;;;7.54
79756;BMP280;69239;50.678;12.280;2023-12-14T09:14:28;97189.31;;;7.55
79756;BMP280;69239;50.678;12.280;2023-12-14T09:16:55;97196.66;;;7.53
79756;BMP280;69239;50.678;12.280;2023-12-14T09:19:20;97206.16;;;7.49
79756;BMP280;69239;50.678;12.280;2023-12-14T09:21:46;97206.75;;;7.46
79756;BMP280;69239;50.678;12.280;2023-12-14T09:24:11;97214.13;;;7.44
79756;BMP280;69239;50.678;12.280;2023-12-14T09:26:37;97205.09;;;7.36
79756;BMP280;69239;50.678;12.280;2023-12-14T09:29:02;97211.88;;;7.37
79756;BMP280;69239;50.678;12.280;2023-12-14T09:31:28;97217.81;;;7.43
79756;BMP280;69239;50.678;12.280;2023-12-14T09:33:53;97216.06;;;7.38
79756;BMP280;69239;50.678;12.280;2023-12-14T09:36:19;97217.41;;;7.36
79756;BMP280;69239;50.678;12.280;2023-12-14T09:38:44;97229.16;;;7.38
79756;BMP280;69239;50.678;12.280;2023-12-14T09:41:11;97227.81;;;7.41
79756;BMP280;69239;50.678;12.280;2023-12-14T09:43:37;97237.78;;;7.39
79756;BMP280;69239;50.678;12.280;2023-12-14T09:46:03;97240.13;;;7.40
79756;BMP280;69239;50.678;12.280;2023-12-14T09:48:29;97246.94;;;7.41
79756;BMP280;69239;50.678;12.280;2023-12-14T09:50:55;97235.75;;;7.36
79756;BMP280;69239;50.678;12.280;2023-12-14T09:53:20;97238.84;;;7.38
79756;BMP280;69239;50.678;12.280;2023-12-14T09:55:46;97241.00;;;7.36
79756;BMP280;69239;50.678;12.280;2023-12-14T09:58:11;97253.41;;;7.44
79756;BMP280;69239;50.678;12.280;2023-12-14T10:00:41;97249.25;;;7.43
79756;BMP280;69239;50.678;12.280;2023-12-14T10:03:24;97216.75;;;7.16
79756;BMP280;69239;50.678;12.280;2023-12-14T10:05:52;97252.06;;;7.46
79756;BMP280;69239;50.678;12.280;2023-12-14T10:08:18;97250.59;;;7.54
79756;BMP280;69239;50.678;12.280;2023-12-14T10:10:46;97254.84;;;7.50
79756;BMP280;69239;50.678;12.280;2023-12-14T10:13:11;97260.31;;;7.54
79756;BMP280;69239;50.678;12.280;2023-12-14T10:15:42;97262.50;;;7.60
79756;BMP280;69239;50.678;12.280;2023-12-14T10:18:07;97257.41;;;7.55
79756;BMP280;69239;50.678;12.280;2023-12-14T10:20:33;97265.13;;;7.60
79756;BMP280;69239;50.678;12.280;2023-12-14T10:22:58;97268.03;;;7.59
79756;BMP280;69239;50.678;12.280;2023-12-14T10:25:24;97268.34;;;7.57
79756;BMP280;69239;50.678;12.280;2023-12-14T10:27:52;97269.88;;;7.72
79756;BMP280;69239;50.678;12.280;2023-12-14T10:30:18;97274.25;;;7.76
79756;BMP280;69239;50.678;12.280;2023-12-14T10:32:47;97275.41;;;7.70
79756;BMP280;69239;50.678;12.280;2023-12-14T10:35:14;97282.97;;;7.72
79756;BMP280;69239;50.678;12.280;2023-12-14T10:37:42;97288.84;;;7.69
79756;BMP280;69239;50.678;12.280;2023-12-14T10:40:09;97281.34;;;7.62
79756;BMP280;69239;50.678;12.280;2023-12-14T10:42:36;97280.28;;;7.63
79756;BMP280;69239;50.678;12.280;2023-12-14T10:45:03;97279.78;;;7.61
79756;BMP280;69239;50.678;12.280;2023-12-14T10:47:30;97278.06;;;7.57
79756;BMP280;69239;50.678;12.280;2023-12-14T10:49:56;97295.69;;;7.65
79756;BMP280;69239;50.678;12.280;2023-12-14T10:52:23;97291.31;;;7.60
79756;BMP280;69239;50.678;12.280;2023-12-14T10:54:53;97298.13;;;7.61
79756;BMP280;69239;50.678;12.280;2023-12-14T10:57:20;97293.44;;;7.58
79756;BMP280;69239;50.678;12.280;2023-12-14T10:59:49;97310.16;;;7.62
79756;BMP280;69239;50.678;12.280;2023-12-14T11:02:15;97310.72;;;7.59
79756;BMP280;69239;50.678;12.280;2023-12-14T11:04:58;97313.75;;;7.52
79756;BMP280;69239;50.678;12.280;2023-12-14T11:07:43;97320.03;;;7.51
79756;BMP280;69239;50.678;12.280;2023-12-14T11:10:10;97320.81;;;7.52
79756;BMP280;69239;50.678;12.280;2023-12-14T11:12:36;97320.44;;;7.45
79756;BMP280;69239;50.678;12.280;2023-12-14T11:15:03;97318.13;;;7.43
79756;BMP280;69239;50.678;12.280;2023-12-14T11:17:29;97328.19;;;7.50
79756;BMP280;69239;50.678;12.280;2023-12-14T11:19:55;97337.91;;;7.63
79756;BMP280;69239;50.678;12.280;2023-12-14T11:22:26;97343.94;;;7.77
79756;BMP280;69239;50.678;12.280;2023-12-14T11:24:54;97346.63;;;8.00
79756;BMP280;69239;50.678;12.280;2023-12-14T11:27:28;97339.84;;;7.99
79756;BMP280;69239;50.678;12.280;2023-12-14T11:29:54;97348.41;;;7.91
79756;BMP280;69239;50.678;12.280;2023-12-14T11:32:20;97350.03;;;7.87
79756;BMP280;69239;50.678;12.280;2023-12-14T11:34:46;97354.13;;;7.79
79756;BMP280;69239;50.678;12.280;2023-12-14T11:37:12;97363.81;;;7.78
79756;BMP280;69239;50.678;12.280;2023-12-14T11:39:38;97352.47;;;7.69
79756;BMP280;69239;50.678;12.280;2023-12-14T11:42:05;97367.44;;;7.69
79756;BMP280;69239;50.678;12.280;2023-12-14T11:44:33;97368.75;;;7.66
79756;BMP280;69239;50.678;12.280;2023-12-14T11:46:59;97358.25;;;7.52
79756;BMP280;69239;50.678;12.280;2023-12-14T11:49:25;97375.13;;;7.60
79756;BMP280;69239;50.678;12.280;2023-12-14T11:51:54;97371.88;;;7.55
79756;BMP280;69239;50.678;12.280;2023-12-14T11:54:20;97372.22;;;7.48
79756;BMP280;69239;50.678;12.280;2023-12-14T11:56:47;97379.50;;;7.51
79756;BMP280;69239;50.678;12.280;2023-12-14T11:59:15;97391.06;;;7.50
79756;BMP280;69239;50.678;12.280;2023-12-14T12:01:56;97392.41;;;7.47
79756;BMP280;69239;50.678;12.280;2023-12-14T12:04:23;97392.22;;;7.44
79756;BMP280;69239;50.678;12.280;2023-12-14T12:06:48;97394.91;;;7.39
79756;BMP280;69239;50.678;12.280;2023-12-14T12:09:32;97401.63;;;7.45
79756;BMP280;69239;50.678;12.280;2023-12-14T12:11:58;97401.84;;;7.62
79756;BMP280;69239;50.678;12.280;2023-12-14T12:14:23;97407.00;;;7.67
79756;BMP280;69239;50.678;12.280;2023-12-14T12:16:49;97409.91;;;7.66
79756;BMP280;69239;50.678;12.280;2023-12-14T12:19:17;97408.16;;;7.61
79756;BMP280;69239;50.678;12.280;2023-12-14T12:21:43;97406.31;;;7.62
79756;BMP280;69239;50.678;12.280;2023-12-14T12:24:09;97402.31;;;7.50
79756;BMP280;69239;50.678;12.280;2023-12-14T12:26:35;97413.56;;;7.51
79756;BMP280;69239;50.678;12.280;2023-12-14T12:29:00;97412.09;;;7.45
79756;BMP280;69239;50.678;12.280;2023-12-14T12:31:27;97416.66;;;7.53
79756;BMP280;69239;50.678;12.280;2023-12-14T12:33:52;97425.53;;;7.57
79756;BMP280;69239;50.678;12.280;2023-12-14T12:36:17;97425.03;;;7.55
79756;BMP280;69239;50.678;12.280;2023-12-14T12:38:43;97428.91;;;7.58
79756;BMP280;69239;50.678;12.280;2023-12-14T12:41:08;97430.31;;;7.69
79756;BMP280;69239;50.678;12.280;2023-12-14T12:43:34;97424.16;;;7.73
79756;BMP280;69239;50.678;12.280;2023-12-14T12:45:59;97425.72;;;7.74
79756;BMP280;69239;50.678;12.280;2023-12-14T12:48:24;97434.94;;;7.72
79756;BMP280;69239;50.678;12.280;2023-12-14T12:50:50;97431.72;;;7.61
79756;BMP280;69239;50.678;12.280;2023-12-14T12:53:15;97438.13;;;7.55
79756;BMP280;69239;50.678;12.280;2023-12-14T12:55:40;97441.13;;;7.48
79756;BMP280;69239;50.678;12.280;2023-12-14T12:58:06;97452.94;;;7.46
79756;BMP280;69239;50.678;12.280;2023-12-14T13:00:33;97450.69;;;7.39
79756;BMP280;69239;50.678;12.280;2023-12-14T13:03:01;97461.44;;;7.38
79756;BMP280;69239;50.678;12.280;2023-12-14T13:05:27;97450.66;;;7.26
79756;BMP280;69239;50.678;12.280;2023-12-14T13:07:53;97462.59;;;7.32
79756;BMP280;69239;50.678;12.280;2023-12-14T13:10:20;97466.84;;;7.28
79756;BMP280;69239;50.678;12.280;2023-12-14T13:12:50;97464.28;;;7.22
79756;BMP280;69239;50.678;12.280;2023-12-14T13:15:15;97465.84;;;7.23
79756;BMP280;69239;50.678;12.280;2023-12-14T13:17:42;97462.34;;;7.14
79756;BMP280;69239;50.678;12.280;2023-12-14T13:20:09;97475.38;;;7.19
79756;BMP280;69239;50.678;12.280;2023-12-14T13:22:35;97459.34;;;7.02
79756;BMP280;69239;50.678;12.280;2023-12-14T13:25:00;97479.59;;;7.15
79756;BMP280;69239;50.678;12.280;2023-12-14T13:27:25;97478.59;;;7.11
79756;BMP280;69239;50.678;12.280;2023-12-14T13:29:51;97478.97;;;7.05
79756;BMP280;69239;50.678;12.280;2023-12-14T13:32:16;97481.31;;;7.06
79756;BMP280;69239;50.678;12.280;2023-12-14T13:34:42;97469.41;;;6.95
79756;BMP280;69239;50.678;12.280;2023-12-14T13:37:07;97500.69;;;7.05
79756;BMP280;69239;50.678;12.280;2023-12-14T13:39:34;97498.13;;;7.00
79756;BMP280;69239;50.678;12.280;2023-12-14T13:42:04;97493.75;;;6.96
79756;BMP280;69239;50.678;12.280;2023-12-14T13:44:30;97499.50;;;6.98
79756;BMP280;69239;50.678;12.280;2023-12-14T13:46:57;97512.28;;;6.99
79756;BMP280;69239;50.678;12.280;2023-12-14T13:49:22;97513.34;;;6.98
79756;BMP280;69239;50.678;12.280;2023-12-14T13:51:48;97507.94;;;6.89
79756;BMP280;69239;50.678;12.280;2023-12-14T13:54:13;97523.09;;;6.93
79756;BMP280;69239;50.678;12.280;2023-12-14T13:56:39;97522.88;;;6.89
79756;BMP280;69239;50.678;12.280;2023-12-14T13:59:04;97523.44;;;6.86
79756;BMP280;69239;50.678;12.280;2023-12-14T14:01:29;97538.84;;;6.87